sensor_id;sensor_type;location;lat;lon;timestamp;pressure;altitude;pressure_sealevel;temperature;humidity
12969;BME280;6549;53.128;8.182;2022-09-09T00:01:32;100529.38;;;13.86;100.00
12969;BME280;6549;53.128;8.182;2022-09-09T00:04:37;100536.56;;;13.80;100.00
12969;BME280;6549;53.128;8.182;2022-09-09T00:07:43;100535.75;;;13.83;100.00
12969;BME280;6549;53.128;8.182;2022-09-09T00:10:51;100531.84;;;13.77;100.00
12969;BME280;6549;53.128;8.182;2022-09-09T00:13:57;100527.63;;;13.69;100.00
12969;BME280;6549;53.128;8.182;2022-09-09T00:17:04;100530.41;;;13.66;100.00
12969;BME280;6549;53.128;8.182;2022-09-09T00:20:43;100523.91;;;13.49;100.00
12969;BME280;6549;53.128;8.182;2022-09-09T00:23:50;100523.06;;;13.52;100.00
12969;BME280;6549;53.128;8.182;2022-09-09T00:26:57;100527.09;;;13.44;100.00
12969;BME280;6549;53.128;8.182;2022-09-09T00:30:22;100532.31;;;13.35;100.00
12969;BME280;6549;53.128;8.182;2022-09-09T00:33:24;100538.25;;;13.33;100.00
12969;BME280;6549;53.128;8.182;2022-09-09T00:36:26;100531.94;;;13.33;100.00
12969;BME280;6549;53.128;8.182;2022-09-09T00:39:34;100528.00;;;13.34;100.00
12969;BME280;6549;53.128;8.182;2022-09-09T00:42:42;100526.00;;;13.34;100.00
12969;BME280;6549;53.128;8.182;2022-09-09T00:55:48;100525.63;;;13.36;100.00
12969;BME280;6549;53.128;8.182;2022-09-09T00:59:07;100513.78;;;13.35;100.00
12969;BME280;6549;53.128;8.182;2022-09-09T01:05:53;100517.38;;;13.29;100.00
12969;BME280;6549;53.128;8.182;2022-09-09T01:09:18;100534.00;;;13.25;100.00
12969;BME280;6549;53.128;8.182;2022-09-09T01:15:38;100523.00;;;13.22;100.00
12969;BME280;6549;53.128;8.182;2022-09-09T01:18:49;100532.44;;;13.21;100.00
12969;BME280;6549;53.128;8.182;2022-09-09T01:22:06;100516.28;;;13.23;100.00
12969;BME280;6549;53.128;8.182;2022-09-09T01:28:48;100511.13;;;13.25;100.00
12969;BME280;6549;53.128;8.182;2022-09-09T01:31:55;100521.34;;;13.28;100.00
12969;BME280;6549;53.128;8.182;2022-09-09T01:34:57;100511.88;;;13.29;100.00
12969;BME280;6549;53.128;8.182;2022-09-09T01:37:57;100515.09;;;13.20;100.00
12969;BME280;6549;53.128;8.182;2022-09-09T01:40:57;100510.47;;;13.14;100.00
12969;BME280;6549;53.128;8.182;2022-09-09T01:43:58;100496.66;;;13.14;100.00
12969;BME280;6549;53.128;8.182;2022-09-09T01:46:58;100507.72;;;13.06;100.00
12969;BME280;6549;53.128;8.182;2022-09-09T01:50:00;100506.91;;;13.10;100.00
12969;BME280;6549;53.128;8.182;2022-09-09T01:53:02;100500.28;;;13.03;100.00
12969;BME280;6549;53.128;8.182;2022-09-09T01:56:21;100494.75;;;13.03;100.00
12969;BME280;6549;53.128;8.182;2022-09-09T01:59:41;100493.56;;;13.04;100.00
12969;BME280;6549;53.128;8.182;2022-09-09T02:06:27;100497.91;;;13.02;100.00
12969;BME280;6549;53.128;8.182;2022-09-09T02:09:30;100487.34;;;12.93;100.00
12969;BME280;6549;53.128;8.182;2022-09-09T02:12:31;100490.88;;;12.94;100.00
12969;BME280;6549;53.128;8.182;2022-09-09T02:18:59;100494.19;;;12.78;100.00
12969;BME280;6549;53.128;8.182;2022-09-09T02:22:01;100492.66;;;12.70;100.00
12969;BME280;6549;53.128;8.182;2022-09-09T02:25:04;100488.69;;;12.78;100.00
12969;BME280;6549;53.128;8.182;2022-09-09T02:28:07;100484.81;;;12.69;100.00
12969;BME280;6549;53.128;8.182;2022-09-09T02:31:09;100490.78;;;12.60;100.00
12969;BME280;6549;53.128;8.182;2022-09-09T02:34:10;100492.66;;;12.70;100.00
12969;BME280;6549;53.128;8.182;2022-09-09T02:37:15;100488.03;;;12.60;100.00
12969;BME280;6549;53.128;8.182;2022-09-09T02:40:17;100487.22;;;12.63;100.00
12969;BME280;6549;53.128;8.182;2022-09-09T02:43:18;100486.47;;;12.59;100.00
12969;BME280;6549;53.128;8.182;2022-09-09T02:56:08;100502.13;;;12.69;100.00
12969;BME280;6549;53.128;8.182;2022-09-09T02:59:09;100492.19;;;12.82;100.00
12969;BME280;6549;53.128;8.182;2022-09-09T03:02:10;100491.25;;;12.99;100.00
12969;BME280;6549;53.128;8.182;2022-09-09T03:05:11;100494.34;;;13.05;100.00
12969;BME280;6549;53.128;8.182;2022-09-09T03:08:13;100497.78;;;13.20;100.00
12969;BME280;6549;53.128;8.182;2022-09-09T03:11:13;100500.97;;;13.15;100.00
12969;BME280;6549;53.128;8.182;2022-09-09T03:14:14;100494.78;;;13.00;100.00
12969;BME280;6549;53.128;8.182;2022-09-09T03:17:14;100497.06;;;13.09;100.00
12969;BME280;6549;53.128;8.182;2022-09-09T03:20:14;100499.00;;;13.15;100.00
12969;BME280;6549;53.128;8.182;2022-09-09T03:23:15;100497.03;;;13.16;100.00
12969;BME280;6549;53.128;8.182;2022-09-09T03:26:15;100500.13;;;13.21;100.00
12969;BME280;6549;53.128;8.182;2022-09-09T03:29:15;100503.16;;;13.34;100.00
12969;BME280;6549;53.128;8.182;2022-09-09T03:32:18;100494.53;;;13.28;100.00
12969;BME280;6549;53.128;8.182;2022-09-09T03:35:19;100496.06;;;13.33;100.00
12969;BME280;6549;53.128;8.182;2022-09-09T03:38:19;100492.50;;;13.36;100.00
12969;BME280;6549;53.128;8.182;2022-09-09T03:41:20;100500.38;;;13.34;100.00
12969;BME280;6549;53.128;8.182;2022-09-09T03:44:21;100500.78;;;13.36;100.00
12969;BME280;6549;53.128;8.182;2022-09-09T03:47:21;100506.44;;;13.22;100.00
12969;BME280;6549;53.128;8.182;2022-09-09T03:50:22;100501.06;;;13.04;100.00
12969;BME280;6549;53.128;8.182;2022-09-09T03:53:23;100515.19;;;13.10;100.00
12969;BME280;6549;53.128;8.182;2022-09-09T03:56:24;100518.75;;;13.06;100.00
12969;BME280;6549;53.128;8.182;2022-09-09T03:59:25;100527.03;;;13.06;100.00
12969;BME280;6549;53.128;8.182;2022-09-09T04:02:25;100530.19;;;13.09;100.00
12969;BME280;6549;53.128;8.182;2022-09-09T04:05:25;100516.75;;;13.14;100.00
12969;BME280;6549;53.128;8.182;2022-09-09T04:08:26;100521.06;;;13.19;100.00
12969;BME280;6549;53.128;8.182;2022-09-09T04:11:27;100525.31;;;13.27;100.00
12969;BME280;6549;53.128;8.182;2022-09-09T04:14:27;100524.56;;;13.23;100.00
12969;BME280;6549;53.128;8.182;2022-09-09T04:17:28;100524.00;;;13.38;100.00
12969;BME280;6549;53.128;8.182;2022-09-09T04:20:29;100528.06;;;13.27;100.00
12969;BME280;6549;53.128;8.182;2022-09-09T04:23:30;100528.38;;;13.36;100.00
12969;BME280;6549;53.128;8.182;2022-09-09T04:26:30;100534.25;;;13.38;100.00
12969;BME280;6549;53.128;8.182;2022-09-09T04:29:31;100522.84;;;13.36;100.00
12969;BME280;6549;53.128;8.182;2022-09-09T04:32:32;100526.75;;;13.38;100.00
12969;BME280;6549;53.128;8.182;2022-09-09T04:35:33;100520.59;;;13.24;100.00
12969;BME280;6549;53.128;8.182;2022-09-09T04:38:33;100532.53;;;13.06;100.00
12969;BME280;6549;53.128;8.182;2022-09-09T04:41:34;100523.47;;;13.06;100.00
12969;BME280;6549;53.128;8.182;2022-09-09T04:44:35;100533.00;;;12.98;100.00
12969;BME280;6549;53.128;8.182;2022-09-09T04:47:36;100540.03;;;13.13;100.00
12969;BME280;6549;53.128;8.182;2022-09-09T04:50:36;100533.06;;;12.94;100.00
12969;BME280;6549;53.128;8.182;2022-09-09T04:53:36;100533.88;;;12.91;100.00
12969;BME280;6549;53.128;8.182;2022-09-09T04:56:38;100543.69;;;12.96;100.00
12969;BME280;6549;53.128;8.182;2022-09-09T04:59:38;100539.59;;;13.18;100.00
12969;BME280;6549;53.128;8.182;2022-09-09T05:02:39;100546.16;;;12.83;100.00
12969;BME280;6549;53.128;8.182;2022-09-09T05:05:40;100548.91;;;12.83;100.00
12969;BME280;6549;53.128;8.182;2022-09-09T05:08:41;100547.66;;;12.88;100.00
12969;BME280;6549;53.128;8.182;2022-09-09T05:11:42;100547.66;;;12.91;100.00
12969;BME280;6549;53.128;8.182;2022-09-09T05:14:43;100555.53;;;12.89;100.00
12969;BME280;6549;53.128;8.182;2022-09-09T05:17:43;100557.13;;;12.90;100.00
12969;BME280;6549;53.128;8.182;2022-09-09T05:20:44;100560.28;;;12.89;100.00
12969;BME280;6549;53.128;8.182;2022-09-09T05:23:45;100557.88;;;12.94;100.00
12969;BME280;6549;53.128;8.182;2022-09-09T05:26:45;100561.34;;;13.02;100.00
12969;BME280;6549;53.128;8.182;2022-09-09T05:29:46;100570.00;;;13.04;100.00
12969;BME280;6549;53.128;8.182;2022-09-09T05:32:46;100558.63;;;12.98;100.00
12969;BME280;6549;53.128;8.182;2022-09-09T05:35:47;100564.09;;;13.02;100.00
12969;BME280;6549;53.128;8.182;2022-09-09T05:38:49;100566.44;;;13.07;100.00
12969;BME280;6549;53.128;8.182;2022-09-09T05:41:49;100571.88;;;13.21;100.00
12969;BME280;6549;53.128;8.182;2022-09-09T05:44:51;100566.22;;;13.35;100.00
12969;BME280;6549;53.128;8.182;2022-09-09T05:47:54;100575.78;;;13.65;100.00
12969;BME280;6549;53.128;8.182;2022-09-09T05:50:54;100574.88;;;14.69;100.00
12969;BME280;6549;53.128;8.182;2022-09-09T05:53:55;100566.16;;;15.67;100.00
12969;BME280;6549;53.128;8.182;2022-09-09T05:56:58;100579.94;;;16.30;100.00
12969;BME280;6549;53.128;8.182;2022-09-09T05:59:59;100576.09;;;16.96;100.00
12969;BME280;6549;53.128;8.182;2022-09-09T06:03:00;100579.53;;;17.48;100.00
12969;BME280;6549;53.128;8.182;2022-09-09T06:06:03;100578.59;;;17.23;100.00
12969;BME280;6549;53.128;8.182;2022-09-09T06:09:07;100581.44;;;16.71;100.00
12969;BME280;6549;53.128;8.182;2022-09-09T06:12:09;100581.03;;;16.52;100.00
12969;BME280;6549;53.128;8.182;2022-09-09T06:15:10;100586.75;;;16.26;100.00
12969;BME280;6549;53.128;8.182;2022-09-09T06:18:10;100580.31;;;15.93;100.00
12969;BME280;6549;53.128;8.182;2022-09-09T06:21:19;100576.03;;;15.68;100.00
12969;BME280;6549;53.128;8.182;2022-09-09T06:24:19;100572.72;;;15.54;100.00
12969;BME280;6549;53.128;8.182;2022-09-09T06:27:20;100577.22;;;15.67;100.00
12969;BME280;6549;53.128;8.182;2022-09-09T06:30:21;100571.34;;;15.85;100.00
12969;BME280;6549;53.128;8.182;2022-09-09T06:33:21;100567.28;;;15.90;100.00
12969;BME280;6549;53.128;8.182;2022-09-09T06:36:33;100568.94;;;16.07;100.00
12969;BME280;6549;53.128;8.182;2022-09-09T06:39:34;100570.72;;;15.97;100.00
12969;BME280;6549;53.128;8.182;2022-09-09T06:42:37;100564.91;;;15.92;100.00
12969;BME280;6549;53.128;8.182;2022-09-09T06:45:38;100571.31;;;15.89;100.00
12969;BME280;6549;53.128;8.182;2022-09-09T06:48:39;100572.19;;;15.82;100.00
12969;BME280;6549;53.128;8.182;2022-09-09T06:51:48;100562.53;;;15.90;100.00
12969;BME280;6549;53.128;8.182;2022-09-09T06:54:52;100562.34;;;16.01;100.00
12969;BME280;6549;53.128;8.182;2022-09-09T06:57:54;100564.47;;;16.13;100.00
12969;BME280;6549;53.128;8.182;2022-09-09T07:01:07;100565.19;;;16.33;100.00
12969;BME280;6549;53.128;8.182;2022-09-09T07:04:08;100565.88;;;16.93;100.00
12969;BME280;6549;53.128;8.182;2022-09-09T07:07:11;100561.41;;;17.60;100.00
12969;BME280;6549;53.128;8.182;2022-09-09T07:10:13;100570.72;;;18.24;100.00
12969;BME280;6549;53.128;8.182;2022-09-09T07:13:14;100576.38;;;18.62;100.00
12969;BME280;6549;53.128;8.182;2022-09-09T07:16:17;100574.00;;;18.85;100.00
12969;BME280;6549;53.128;8.182;2022-09-09T07:19:18;100580.34;;;19.11;100.00
12969;BME280;6549;53.128;8.182;2022-09-09T07:22:19;100579.38;;;19.40;100.00
12969;BME280;6549;53.128;8.182;2022-09-09T07:25:20;100587.38;;;19.63;100.00
12969;BME280;6549;53.128;8.182;2022-09-09T07:28:21;100588.56;;;19.96;100.00
12969;BME280;6549;53.128;8.182;2022-09-09T07:31:25;100585.59;;;20.12;100.00
12969;BME280;6549;53.128;8.182;2022-09-09T07:34:26;100586.88;;;20.42;100.00
12969;BME280;6549;53.128;8.182;2022-09-09T07:37:26;100588.84;;;20.33;100.00
12969;BME280;6549;53.128;8.182;2022-09-09T07:40:27;100590.97;;;20.50;100.00
12969;BME280;6549;53.128;8.182;2022-09-09T07:43:28;100598.88;;;20.83;100.00
12969;BME280;6549;53.128;8.182;2022-09-09T07:46:28;100593.53;;;21.06;100.00
12969;BME280;6549;53.128;8.182;2022-09-09T07:49:29;100586.63;;;21.47;100.00
12969;BME280;6549;53.128;8.182;2022-09-09T07:52:29;100590.69;;;21.56;100.00
12969;BME280;6549;53.128;8.182;2022-09-09T07:55:29;100602.34;;;21.54;100.00
12969;BME280;6549;53.128;8.182;2022-09-09T07:58:30;100600.94;;;21.40;100.00
12969;BME280;6549;53.128;8.182;2022-09-09T08:01:33;100603.25;;;21.33;100.00
12969;BME280;6549;53.128;8.182;2022-09-09T08:04:37;100599.16;;;21.16;100.00
12969;BME280;6549;53.128;8.182;2022-09-09T08:07:38;100609.56;;;21.15;100.00
12969;BME280;6549;53.128;8.182;2022-09-09T08:10:38;100595.78;;;21.30;100.00
12969;BME280;6549;53.128;8.182;2022-09-09T08:13:39;100595.13;;;21.17;100.00
12969;BME280;6549;53.128;8.182;2022-09-09T08:16:42;100595.00;;;21.38;100.00
12969;BME280;6549;53.128;8.182;2022-09-09T08:19:43;100593.13;;;21.26;100.00
12969;BME280;6549;53.128;8.182;2022-09-09T08:22:44;100597.56;;;21.05;100.00
12969;BME280;6549;53.128;8.182;2022-09-09T08:25:44;100588.31;;;21.18;100.00
12969;BME280;6549;53.128;8.182;2022-09-09T08:28:45;100590.50;;;21.23;100.00
12969;BME280;6549;53.128;8.182;2022-09-09T08:31:54;100597.50;;;21.36;100.00
12969;BME280;6549;53.128;8.182;2022-09-09T08:34:54;100593.50;;;21.92;100.00
12969;BME280;6549;53.128;8.182;2022-09-09T08:37:54;100590.69;;;21.74;100.00
12969;BME280;6549;53.128;8.182;2022-09-09T08:41:15;100594.56;;;22.22;100.00
12969;BME280;6549;53.128;8.182;2022-09-09T08:51:05;100603.84;;;22.46;100.00
12969;BME280;6549;53.128;8.182;2022-09-09T08:54:08;100598.25;;;22.46;100.00
12969;BME280;6549;53.128;8.182;2022-09-09T08:57:11;100608.09;;;21.87;100.00
12969;BME280;6549;53.128;8.182;2022-09-09T09:00:14;100606.06;;;21.60;100.00
12969;BME280;6549;53.128;8.182;2022-09-09T09:03:22;100618.47;;;21.32;100.00
12969;BME280;6549;53.128;8.182;2022-09-09T09:12:48;100612.66;;;21.93;100.00
12969;BME280;6549;53.128;8.182;2022-09-09T09:15:54;100625.97;;;21.62;100.00
12969;BME280;6549;53.128;8.182;2022-09-09T09:18:57;100631.59;;;21.13;100.00
12969;BME280;6549;53.128;8.182;2022-09-09T09:22:10;100633.72;;;21.09;100.00
12969;BME280;6549;53.128;8.182;2022-09-09T09:25:17;100635.38;;;21.28;100.00
12969;BME280;6549;53.128;8.182;2022-09-09T09:28:24;100627.75;;;21.20;100.00
12969;BME280;6549;53.128;8.182;2022-09-09T09:31:24;100623.63;;;21.12;100.00
12969;BME280;6549;53.128;8.182;2022-09-09T09:34:26;100627.66;;;21.01;100.00
12969;BME280;6549;53.128;8.182;2022-09-09T09:37:31;100630.41;;;20.92;100.00
12969;BME280;6549;53.128;8.182;2022-09-09T09:40:32;100626.28;;;21.06;100.00
12969;BME280;6549;53.128;8.182;2022-09-09T09:43:35;100622.19;;;21.47;100.00
12969;BME280;6549;53.128;8.182;2022-09-09T09:46:35;100617.09;;;21.55;100.00
12969;BME280;6549;53.128;8.182;2022-09-09T09:49:36;100619.28;;;21.60;100.00
12969;BME280;6549;53.128;8.182;2022-09-09T09:52:37;100629.03;;;21.37;100.00
12969;BME280;6549;53.128;8.182;2022-09-09T09:55:48;100626.63;;;21.17;100.00
12969;BME280;6549;53.128;8.182;2022-09-09T09:58:51;100626.44;;;21.12;100.00
12969;BME280;6549;53.128;8.182;2022-09-09T10:01:51;100624.00;;;21.14;100.00
12969;BME280;6549;53.128;8.182;2022-09-09T10:05:08;100619.88;;;21.36;100.00
12969;BME280;6549;53.128;8.182;2022-09-09T10:08:14;100619.91;;;21.55;100.00
12969;BME280;6549;53.128;8.182;2022-09-09T10:21:20;100615.28;;;21.97;100.00
12969;BME280;6549;53.128;8.182;2022-09-09T10:28:24;100607.31;;;21.86;100.00
12969;BME280;6549;53.128;8.182;2022-09-09T10:31:54;100610.88;;;21.87;100.00
12969;BME280;6549;53.128;8.182;2022-09-09T10:38:45;100611.56;;;22.78;100.00
12969;BME280;6549;53.128;8.182;2022-09-09T10:45:28;100629.44;;;22.12;100.00
12969;BME280;6549;53.128;8.182;2022-09-09T10:52:05;100615.38;;;21.48;100.00
12969;BME280;6549;53.128;8.182;2022-09-09T10:55:18;100607.31;;;21.59;100.00
12969;BME280;6549;53.128;8.182;2022-09-09T10:58:25;100613.56;;;22.00;100.00
12969;BME280;6549;53.128;8.182;2022-09-09T11:01:32;100607.25;;;22.59;100.00
12969;BME280;6549;53.128;8.182;2022-09-09T11:04:48;100616.22;;;23.14;100.00
12969;BME280;6549;53.128;8.182;2022-09-09T11:07:56;100612.38;;;23.03;100.00
12969;BME280;6549;53.128;8.182;2022-09-09T11:14:44;100612.63;;;22.81;100.00
12969;BME280;6549;53.128;8.182;2022-09-09T11:17:58;100618.25;;;23.14;100.00
12969;BME280;6549;53.128;8.182;2022-09-09T11:21:03;100614.53;;;23.08;100.00
12969;BME280;6549;53.128;8.182;2022-09-09T11:24:15;100617.13;;;22.88;100.00
12969;BME280;6549;53.128;8.182;2022-09-09T11:27:38;100608.56;;;23.48;100.00
12969;BME280;6549;53.128;8.182;2022-09-09T11:41:03;100609.69;;;21.97;100.00
12969;BME280;6549;53.128;8.182;2022-09-09T11:44:18;100615.44;;;22.03;100.00
12969;BME280;6549;53.128;8.182;2022-09-09T11:47:28;100612.78;;;21.90;100.00
12969;BME280;6549;53.128;8.182;2022-09-09T11:50:39;100602.97;;;21.76;100.00
12969;BME280;6549;53.128;8.182;2022-09-09T11:56:56;100604.69;;;21.74;100.00
12969;BME280;6549;53.128;8.182;2022-09-09T11:59:56;100603.28;;;21.69;100.00
12969;BME280;6549;53.128;8.182;2022-09-09T12:02:57;100590.25;;;21.75;100.00
12969;BME280;6549;53.128;8.182;2022-09-09T12:05:58;100594.09;;;21.87;100.00
12969;BME280;6549;53.128;8.182;2022-09-09T12:12:45;100594.88;;;21.78;100.00
12969;BME280;6549;53.128;8.182;2022-09-09T12:15:50;100599.72;;;21.96;100.00
12969;BME280;6549;53.128;8.182;2022-09-09T12:18:51;100598.31;;;22.10;100.00
12969;BME280;6549;53.128;8.182;2022-09-09T12:22:11;100596.16;;;21.95;100.00
12969;BME280;6549;53.128;8.182;2022-09-09T12:25:29;100604.53;;;21.68;100.00
12969;BME280;6549;53.128;8.182;2022-09-09T12:28:42;100604.34;;;21.44;100.00
12969;BME280;6549;53.128;8.182;2022-09-09T12:35:20;100613.19;;;21.43;100.00
12969;BME280;6549;53.128;8.182;2022-09-09T12:38:36;100610.38;;;21.34;100.00
12969;BME280;6549;53.128;8.182;2022-09-09T12:41:38;100607.25;;;21.23;100.00
12969;BME280;6549;53.128;8.182;2022-09-09T12:44:38;100608.63;;;21.18;100.00
12969;BME280;6549;53.128;8.182;2022-09-09T12:47:43;100594.53;;;21.31;100.00
12969;BME280;6549;53.128;8.182;2022-09-09T12:50:50;100589.88;;;21.28;100.00
12969;BME280;6549;53.128;8.182;2022-09-09T12:53:52;100596.25;;;21.28;100.00
12969;BME280;6549;53.128;8.182;2022-09-09T12:56:52;100594.16;;;21.11;100.00
12969;BME280;6549;53.128;8.182;2022-09-09T13:00:14;100587.41;;;20.90;100.00
12969;BME280;6549;53.128;8.182;2022-09-09T13:03:17;100580.09;;;20.83;100.00
12969;BME280;6549;53.128;8.182;2022-09-09T13:06:35;100578.16;;;20.62;100.00
12969;BME280;6549;53.128;8.182;2022-09-09T13:09:36;100571.78;;;20.61;100.00
12969;BME280;6549;53.128;8.182;2022-09-09T13:12:37;100569.81;;;20.71;100.00
12969;BME280;6549;53.128;8.182;2022-09-09T13:15:37;100572.56;;;20.62;100.00
12969;BME280;6549;53.128;8.182;2022-09-09T13:18:40;100576.56;;;20.52;100.00
12969;BME280;6549;53.128;8.182;2022-09-09T13:21:42;100577.19;;;20.56;100.00
12969;BME280;6549;53.128;8.182;2022-09-09T13:24:43;100581.06;;;20.58;100.00
12969;BME280;6549;53.128;8.182;2022-09-09T13:28:00;100576.75;;;20.36;100.00
12969;BME280;6549;53.128;8.182;2022-09-09T13:31:04;100595.34;;;20.30;100.00
12969;BME280;6549;53.128;8.182;2022-09-09T13:34:14;100593.44;;;20.27;100.00
12969;BME280;6549;53.128;8.182;2022-09-09T13:37:37;100597.72;;;20.40;100.00
12969;BME280;6549;53.128;8.182;2022-09-09T13:40:38;100598.88;;;20.52;100.00
12969;BME280;6549;53.128;8.182;2022-09-09T13:43:45;100594.25;;;20.58;100.00
12969;BME280;6549;53.128;8.182;2022-09-09T13:46:47;100602.16;;;20.90;100.00
12969;BME280;6549;53.128;8.182;2022-09-09T13:49:47;100600.28;;;21.27;100.00
12969;BME280;6549;53.128;8.182;2022-09-09T13:52:48;100603.84;;;21.28;100.00
12969;BME280;6549;53.128;8.182;2022-09-09T13:55:51;100598.09;;;21.22;100.00
12969;BME280;6549;53.128;8.182;2022-09-09T13:58:52;100607.34;;;21.10;100.00
12969;BME280;6549;53.128;8.182;2022-09-09T14:01:52;100597.53;;;20.96;100.00
12969;BME280;6549;53.128;8.182;2022-09-09T14:04:53;100601.47;;;20.77;100.00
12969;BME280;6549;53.128;8.182;2022-09-09T14:07:55;100600.53;;;20.71;100.00
12969;BME280;6549;53.128;8.182;2022-09-09T14:10:56;100594.03;;;20.74;100.00
12969;BME280;6549;53.128;8.182;2022-09-09T14:13:58;100596.03;;;20.74;100.00
12969;BME280;6549;53.128;8.182;2022-09-09T14:16:58;100592.16;;;20.71;100.00
12969;BME280;6549;53.128;8.182;2022-09-09T14:19:59;100592.41;;;20.64;100.00
12969;BME280;6549;53.128;8.182;2022-09-09T14:22:59;100584.94;;;20.52;100.00
12969;BME280;6549;53.128;8.182;2022-09-09T14:25:59;100587.53;;;20.46;100.00
12969;BME280;6549;53.128;8.182;2022-09-09T14:29:00;100588.16;;;20.50;100.00
12969;BME280;6549;53.128;8.182;2022-09-09T14:32:01;100584.97;;;20.30;100.00
12969;BME280;6549;53.128;8.182;2022-09-09T14:35:01;100585.31;;;20.19;100.00
12969;BME280;6549;53.128;8.182;2022-09-09T14:38:04;100584.19;;;20.30;100.00
12969;BME280;6549;53.128;8.182;2022-09-09T14:41:11;100579.50;;;20.27;100.00
12969;BME280;6549;53.128;8.182;2022-09-09T14:44:12;100587.66;;;20.21;100.00
12969;BME280;6549;53.128;8.182;2022-09-09T14:47:13;100581.13;;;19.93;100.00
12969;BME280;6549;53.128;8.182;2022-09-09T14:50:13;100569.88;;;20.06;100.00
12969;BME280;6549;53.128;8.182;2022-09-09T14:53:16;100564.44;;;20.02;100.00
12969;BME280;6549;53.128;8.182;2022-09-09T14:56:19;100560.94;;;19.89;100.00
12969;BME280;6549;53.128;8.182;2022-09-09T14:59:21;100562.94;;;19.67;100.00
12969;BME280;6549;53.128;8.182;2022-09-09T15:02:22;100566.00;;;19.60;100.00
12969;BME280;6549;53.128;8.182;2022-09-09T15:05:23;100567.13;;;19.50;100.00
12969;BME280;6549;53.128;8.182;2022-09-09T15:08:25;100567.66;;;19.57;100.00
12969;BME280;6549;53.128;8.182;2022-09-09T15:11:27;100563.78;;;19.55;100.00
12969;BME280;6549;53.128;8.182;2022-09-09T15:14:28;100565.66;;;19.58;100.00
12969;BME280;6549;53.128;8.182;2022-09-09T15:17:28;100565.88;;;19.04;100.00
12969;BME280;6549;53.128;8.182;2022-09-09T15:20:29;100565.28;;;19.21;100.00
12969;BME280;6549;53.128;8.182;2022-09-09T15:23:31;100565.94;;;19.25;100.00
12969;BME280;6549;53.128;8.182;2022-09-09T15:26:31;100574.66;;;19.15;100.00
12969;BME280;6549;53.128;8.182;2022-09-09T15:29:32;100576.22;;;19.03;100.00
12969;BME280;6549;53.128;8.182;2022-09-09T15:32:33;100574.91;;;18.95;100.00
12969;BME280;6549;53.128;8.182;2022-09-09T15:35:35;100565.13;;;18.78;100.00
12969;BME280;6549;53.128;8.182;2022-09-09T15:38:35;100577.38;;;18.80;100.00
12969;BME280;6549;53.128;8.182;2022-09-09T15:41:35;100563.44;;;18.93;100.00
12969;BME280;6549;53.128;8.182;2022-09-09T15:44:40;100564.56;;;18.83;100.00
12969;BME280;6549;53.128;8.182;2022-09-09T15:47:42;100567.44;;;18.92;100.00
12969;BME280;6549;53.128;8.182;2022-09-09T15:50:43;100566.53;;;19.08;100.00
12969;BME280;6549;53.128;8.182;2022-09-09T15:53:44;100554.69;;;19.16;100.00
12969;BME280;6549;53.128;8.182;2022-09-09T15:56:46;100562.75;;;19.14;100.00
12969;BME280;6549;53.128;8.182;2022-09-09T15:59:48;100551.78;;;19.33;100.00
12969;BME280;6549;53.128;8.182;2022-09-09T16:02:49;100552.75;;;19.51;100.00
12969;BME280;6549;53.128;8.182;2022-09-09T16:05:52;100561.44;;;19.75;100.00
12969;BME280;6549;53.128;8.182;2022-09-09T16:08:53;100568.47;;;19.80;100.00
12969;BME280;6549;53.128;8.182;2022-09-09T16:12:00;100581.47;;;19.83;100.00
12969;BME280;6549;53.128;8.182;2022-09-09T16:15:01;100588.19;;;19.85;100.00
12969;BME280;6549;53.128;8.182;2022-09-09T16:18:01;100579.50;;;19.49;100.00
12969;BME280;6549;53.128;8.182;2022-09-09T16:21:03;100584.50;;;19.54;100.00
12969;BME280;6549;53.128;8.182;2022-09-09T16:24:06;100578.72;;;19.36;100.00
12969;BME280;6549;53.128;8.182;2022-09-09T16:27:06;100577.06;;;19.38;100.00
12969;BME280;6549;53.128;8.182;2022-09-09T16:30:07;100572.50;;;19.32;100.00
12969;BME280;6549;53.128;8.182;2022-09-09T16:33:08;100580.53;;;19.29;100.00
12969;BME280;6549;53.128;8.182;2022-09-09T16:36:11;100584.00;;;19.21;100.00
12969;BME280;6549;53.128;8.182;2022-09-09T16:39:17;100586.00;;;19.08;100.00
12969;BME280;6549;53.128;8.182;2022-09-09T16:42:18;100591.84;;;19.01;100.00
12969;BME280;6549;53.128;8.182;2022-09-09T16:45:18;100590.94;;;19.04;100.00
12969;BME280;6549;53.128;8.182;2022-09-09T16:48:18;100599.53;;;18.84;100.00
12969;BME280;6549;53.128;8.182;2022-09-09T16:51:23;100619.22;;;18.77;100.00
12969;BME280;6549;53.128;8.182;2022-09-09T16:54:24;100631.78;;;18.69;100.00
12969;BME280;6549;53.128;8.182;2022-09-09T16:57:26;100636.03;;;18.61;100.00
12969;BME280;6549;53.128;8.182;2022-09-09T17:00:30;100644.44;;;18.45;100.00
12969;BME280;6549;53.128;8.182;2022-09-09T17:03:32;100644.28;;;18.23;100.00
12969;BME280;6549;53.128;8.182;2022-09-09T17:06:33;100641.56;;;18.19;100.00
12969;BME280;6549;53.128;8.182;2022-09-09T17:09:38;100635.78;;;18.14;100.00
12969;BME280;6549;53.128;8.182;2022-09-09T17:12:38;100645.47;;;17.93;100.00
12969;BME280;6549;53.128;8.182;2022-09-09T17:15:40;100648.81;;;17.72;100.00
12969;BME280;6549;53.128;8.182;2022-09-09T17:18:42;100645.97;;;17.59;100.00
12969;BME280;6549;53.128;8.182;2022-09-09T17:21:43;100645.69;;;17.53;100.00
12969;BME280;6549;53.128;8.182;2022-09-09T17:24:44;100636.31;;;17.47;100.00
12969;BME280;6549;53.128;8.182;2022-09-09T17:27:44;100635.19;;;17.45;100.00
12969;BME280;6549;53.128;8.182;2022-09-09T17:30:44;100626.09;;;17.28;100.00
12969;BME280;6549;53.128;8.182;2022-09-09T17:33:47;100625.03;;;17.22;100.00
12969;BME280;6549;53.128;8.182;2022-09-09T17:36:48;100630.16;;;17.24;100.00
12969;BME280;6549;53.128;8.182;2022-09-09T17:39:48;100626.09;;;17.28;100.00